sensor_id;sensor_type;location;lat;lon;timestamp;P1;durP1;ratioP1;P2;durP2;ratioP2
17686;SDS011;8962;52.538;13.266;2023-04-25T00:01:22;8.05;;;4.03;;
17686;SDS011;8962;52.538;13.266;2023-04-25T00:03:49;6.55;;;3.70;;
17686;SDS011;8962;52.538;13.266;2023-04-25T00:06:16;5.95;;;3.92;;
17686;SDS011;8962;52.538;13.266;2023-04-25T00:08:43;6.45;;;3.38;;
17686;SDS011;8962;52.538;13.266;2023-04-25T00:11:11;8.82;;;3.50;;
17686;SDS011;8962;52.538;13.266;2023-04-25T00:13:38;5.60;;;3.45;;
17686;SDS011;8962;52.538;13.266;2023-04-25T00:16:06;6.65;;;3.80;;
17686;SDS011;8962;52.538;13.266;2023-04-25T00:18:35;15.68;;;3.92;;
17686;SDS011;8962;52.538;13.266;2023-04-25T00:21:02;5.18;;;3.53;;
17686;SDS011;8962;52.538;13.266;2023-04-25T00:23:31;8.82;;;3.92;;
17686;SDS011;8962;52.538;13.266;2023-04-25T00:26:00;8.73;;;4.13;;
17686;SDS011;8962;52.538;13.266;2023-04-25T00:28:28;7.97;;;3.22;;
17686;SDS011;8962;52.538;13.266;2023-04-25T00:30:56;7.00;;;3.50;;
17686;SDS011;8962;52.538;13.266;2023-04-25T00:33:22;11.07;;;3.90;;
17686;SDS011;8962;52.538;13.266;2023-04-25T00:35:52;10.10;;;3.80;;
17686;SDS011;8962;52.538;13.266;2023-04-25T00:38:19;8.10;;;3.50;;
17686;SDS011;8962;52.538;13.266;2023-04-25T00:40:46;7.32;;;3.50;;
17686;SDS011;8962;52.538;13.266;2023-04-25T00:43:14;7.75;;;3.40;;
17686;SDS011;8962;52.538;13.266;2023-04-25T00:45:42;6.65;;;3.33;;
17686;SDS011;8962;52.538;13.266;2023-04-25T00:48:09;5.22;;;3.25;;
17686;SDS011;8962;52.538;13.266;2023-04-25T00:50:37;8.60;;;3.53;;
17686;SDS011;8962;52.538;13.266;2023-04-25T00:53:08;8.60;;;3.92;;
17686;SDS011;8962;52.538;13.266;2023-04-25T00:55:36;8.75;;;4.10;;
17686;SDS011;8962;52.538;13.266;2023-04-25T00:58:03;8.68;;;3.63;;
17686;SDS011;8962;52.538;13.266;2023-04-25T01:00:32;9.23;;;3.75;;
17686;SDS011;8962;52.538;13.266;2023-04-25T01:02:59;6.38;;;3.80;;
17686;SDS011;8962;52.538;13.266;2023-04-25T01:05:27;4.65;;;3.35;;
17686;SDS011;8962;52.538;13.266;2023-04-25T01:07:56;5.82;;;3.17;;
17686;SDS011;8962;52.538;13.266;2023-04-25T01:10:25;7.55;;;3.58;;
17686;SDS011;8962;52.538;13.266;2023-04-25T01:12:52;9.25;;;4.28;;
17686;SDS011;8962;52.538;13.266;2023-04-25T01:15:19;12.70;;;4.57;;
17686;SDS011;8962;52.538;13.266;2023-04-25T01:17:47;8.40;;;3.47;;
17686;SDS011;8962;52.538;13.266;2023-04-25T01:20:16;7.03;;;3.92;;
17686;SDS011;8962;52.538;13.266;2023-04-25T01:22:45;14.00;;;4.65;;
17686;SDS011;8962;52.538;13.266;2023-04-25T01:25:13;12.93;;;4.10;;
17686;SDS011;8962;52.538;13.266;2023-04-25T01:27:43;7.75;;;3.70;;
17686;SDS011;8962;52.538;13.266;2023-04-25T01:30:11;7.18;;;3.65;;
17686;SDS011;8962;52.538;13.266;2023-04-25T01:32:40;7.80;;;4.18;;
17686;SDS011;8962;52.538;13.266;2023-04-25T01:35:09;7.88;;;3.70;;
17686;SDS011;8962;52.538;13.266;2023-04-25T01:37:38;9.60;;;3.38;;
17686;SDS011;8962;52.538;13.266;2023-04-25T01:40:13;9.15;;;3.80;;
17686;SDS011;8962;52.538;13.266;2023-04-25T01:42:41;6.22;;;4.03;;
17686;SDS011;8962;52.538;13.266;2023-04-25T01:45:10;7.03;;;3.72;;
17686;SDS011;8962;52.538;13.266;2023-04-25T01:47:38;10.18;;;4.40;;
17686;SDS011;8962;52.538;13.266;2023-04-25T01:50:08;8.25;;;3.95;;
17686;SDS011;8962;52.538;13.266;2023-04-25T01:52:37;8.80;;;3.72;;
17686;SDS011;8962;52.538;13.266;2023-04-25T01:55:05;9.25;;;4.32;;
17686;SDS011;8962;52.538;13.266;2023-04-25T01:57:37;11.70;;;4.50;;
17686;SDS011;8962;52.538;13.266;2023-04-25T02:00:05;10.75;;;4.15;;
17686;SDS011;8962;52.538;13.266;2023-04-25T02:02:38;9.90;;;4.18;;
17686;SDS011;8962;52.538;13.266;2023-04-25T02:05:15;10.48;;;4.38;;
17686;SDS011;8962;52.538;13.266;2023-04-25T02:07:43;13.70;;;4.40;;
17686;SDS011;8962;52.538;13.266;2023-04-25T02:10:11;9.88;;;4.82;;
17686;SDS011;8962;52.538;13.266;2023-04-25T02:12:54;7.95;;;4.25;;
17686;SDS011;8962;52.538;13.266;2023-04-25T02:15:39;11.32;;;4.40;;
17686;SDS011;8962;52.538;13.266;2023-04-25T02:18:14;10.20;;;4.57;;
17686;SDS011;8962;52.538;13.266;2023-04-25T02:20:42;11.98;;;4.40;;
17686;SDS011;8962;52.538;13.266;2023-04-25T02:23:11;12.23;;;4.80;;
17686;SDS011;8962;52.538;13.266;2023-04-25T02:25:40;11.07;;;5.13;;
17686;SDS011;8962;52.538;13.266;2023-04-25T02:28:09;12.05;;;4.53;;
17686;SDS011;8962;52.538;13.266;2023-04-25T02:30:37;16.17;;;4.68;;
17686;SDS011;8962;52.538;13.266;2023-04-25T02:33:04;10.25;;;4.63;;
17686;SDS011;8962;52.538;13.266;2023-04-25T02:35:31;11.70;;;4.53;;
17686;SDS011;8962;52.538;13.266;2023-04-25T02:37:58;9.05;;;5.25;;
17686;SDS011;8962;52.538;13.266;2023-04-25T02:40:27;8.88;;;4.95;;
17686;SDS011;8962;52.538;13.266;2023-04-25T02:42:57;9.13;;;4.15;;
17686;SDS011;8962;52.538;13.266;2023-04-25T02:45:27;7.18;;;4.10;;
17686;SDS011;8962;52.538;13.266;2023-04-25T02:47:55;8.90;;;4.75;;
17686;SDS011;8962;52.538;13.266;2023-04-25T02:50:26;9.65;;;4.90;;
17686;SDS011;8962;52.538;13.266;2023-04-25T02:52:54;10.68;;;5.20;;
17686;SDS011;8962;52.538;13.266;2023-04-25T02:55:26;11.02;;;4.72;;
17686;SDS011;8962;52.538;13.266;2023-04-25T02:57:53;10.20;;;4.90;;
17686;SDS011;8962;52.538;13.266;2023-04-25T03:00:35;9.43;;;5.05;;
17686;SDS011;8962;52.538;13.266;2023-04-25T03:03:03;10.25;;;5.32;;
17686;SDS011;8962;52.538;13.266;2023-04-25T03:05:30;11.98;;;5.53;;
17686;SDS011;8962;52.538;13.266;2023-04-25T03:07:58;12.00;;;5.15;;
17686;SDS011;8962;52.538;13.266;2023-04-25T03:10:26;13.18;;;4.85;;
17686;SDS011;8962;52.538;13.266;2023-04-25T03:12:58;10.45;;;4.95;;
17686;SDS011;8962;52.538;13.266;2023-04-25T03:15:25;12.05;;;4.65;;
17686;SDS011;8962;52.538;13.266;2023-04-25T03:17:54;9.85;;;5.32;;
17686;SDS011;8962;52.538;13.266;2023-04-25T03:20:22;10.25;;;5.03;;
17686;SDS011;8962;52.538;13.266;2023-04-25T03:22:50;11.63;;;5.40;;
17686;SDS011;8962;52.538;13.266;2023-04-25T03:25:17;11.27;;;5.60;;
17686;SDS011;8962;52.538;13.266;2023-04-25T03:27:45;14.73;;;5.63;;
17686;SDS011;8962;52.538;13.266;2023-04-25T03:30:12;10.95;;;5.65;;
17686;SDS011;8962;52.538;13.266;2023-04-25T03:32:41;9.45;;;4.90;;
17686;SDS011;8962;52.538;13.266;2023-04-25T03:35:10;12.98;;;5.57;;
17686;SDS011;8962;52.538;13.266;2023-04-25T03:37:38;10.55;;;5.20;;
17686;SDS011;8962;52.538;13.266;2023-04-25T03:40:06;15.73;;;5.57;;
17686;SDS011;8962;52.538;13.266;2023-04-25T03:43:05;11.02;;;5.38;;
17686;SDS011;8962;52.538;13.266;2023-04-25T03:45:33;11.75;;;5.10;;
17686;SDS011;8962;52.538;13.266;2023-04-25T03:48:00;12.68;;;5.30;;
17686;SDS011;8962;52.538;13.266;2023-04-25T03:50:30;10.63;;;4.80;;
17686;SDS011;8962;52.538;13.266;2023-04-25T03:52:57;13.98;;;5.72;;
17686;SDS011;8962;52.538;13.266;2023-04-25T03:55:28;12.85;;;5.22;;
17686;SDS011;8962;52.538;13.266;2023-04-25T03:57:57;15.25;;;5.75;;
17686;SDS011;8962;52.538;13.266;2023-04-25T04:00:24;14.07;;;5.53;;
17686;SDS011;8962;52.538;13.266;2023-04-25T04:02:52;14.35;;;5.85;;
17686;SDS011;8962;52.538;13.266;2023-04-25T04:05:20;15.80;;;5.47;;
17686;SDS011;8962;52.538;13.266;2023-04-25T04:07:54;14.40;;;5.20;;
17686;SDS011;8962;52.538;13.266;2023-04-25T04:10:22;13.57;;;5.60;;
17686;SDS011;8962;52.538;13.266;2023-04-25T04:12:49;12.90;;;5.53;;
17686;SDS011;8962;52.538;13.266;2023-04-25T04:15:17;15.65;;;5.43;;
17686;SDS011;8962;52.538;13.266;2023-04-25T04:17:47;11.13;;;5.07;;
17686;SDS011;8962;52.538;13.266;2023-04-25T04:20:17;12.45;;;5.45;;
17686;SDS011;8962;52.538;13.266;2023-04-25T04:22:44;19.40;;;6.20;;
17686;SDS011;8962;52.538;13.266;2023-04-25T04:25:16;12.05;;;5.80;;
17686;SDS011;8962;52.538;13.266;2023-04-25T04:28:06;13.43;;;5.00;;
17686;SDS011;8962;52.538;13.266;2023-04-25T04:30:53;12.43;;;4.97;;
17686;SDS011;8962;52.538;13.266;2023-04-25T04:33:21;15.15;;;8.07;;
17686;SDS011;8962;52.538;13.266;2023-04-25T04:35:54;11.20;;;5.55;;
17686;SDS011;8962;52.538;13.266;2023-04-25T04:38:22;10.60;;;5.28;;
17686;SDS011;8962;52.538;13.266;2023-04-25T04:40:54;10.05;;;5.05;;
17686;SDS011;8962;52.538;13.266;2023-04-25T04:43:34;13.32;;;5.30;;
17686;SDS011;8962;52.538;13.266;2023-04-25T04:46:23;12.20;;;5.43;;
17686;SDS011;8962;52.538;13.266;2023-04-25T04:49:16;10.48;;;4.93;;
17686;SDS011;8962;52.538;13.266;2023-04-25T04:51:54;16.50;;;4.93;;
17686;SDS011;8962;52.538;13.266;2023-04-25T04:54:51;12.35;;;5.07;;
17686;SDS011;8962;52.538;13.266;2023-04-25T04:57:54;10.57;;;5.15;;
17686;SDS011;8962;52.538;13.266;2023-04-25T05:00:40;9.18;;;5.22;;
17686;SDS011;8962;52.538;13.266;2023-04-25T05:03:26;10.07;;;5.53;;
17686;SDS011;8962;52.538;13.266;2023-04-25T05:06:16;14.80;;;5.82;;
17686;SDS011;8962;52.538;13.266;2023-04-25T05:08:51;10.27;;;5.38;;
17686;SDS011;8962;52.538;13.266;2023-04-25T05:11:37;11.35;;;5.32;;
17686;SDS011;8962;52.538;13.266;2023-04-25T05:14:26;10.38;;;4.97;;
17686;SDS011;8962;52.538;13.266;2023-04-25T05:17:08;10.82;;;4.75;;
17686;SDS011;8962;52.538;13.266;2023-04-25T05:19:55;13.10;;;5.57;;
17686;SDS011;8962;52.538;13.266;2023-04-25T05:22:42;10.77;;;5.20;;
17686;SDS011;8962;52.538;13.266;2023-04-25T05:25:18;9.88;;;5.35;;
17686;SDS011;8962;52.538;13.266;2023-04-25T05:27:56;11.95;;;5.10;;
17686;SDS011;8962;52.538;13.266;2023-04-25T05:30:41;12.20;;;5.65;;
17686;SDS011;8962;52.538;13.266;2023-04-25T05:33:20;10.25;;;5.13;;
17686;SDS011;8962;52.538;13.266;2023-04-25T05:35:48;12.02;;;5.30;;
17686;SDS011;8962;52.538;13.266;2023-04-25T05:38:18;11.90;;;5.68;;
17686;SDS011;8962;52.538;13.266;2023-04-25T05:41:20;12.77;;;5.95;;
17686;SDS011;8962;52.538;13.266;2023-04-25T05:43:58;13.93;;;6.70;;
17686;SDS011;8962;52.538;13.266;2023-04-25T05:46:34;13.18;;;5.68;;
17686;SDS011;8962;52.538;13.266;2023-04-25T05:49:29;15.73;;;6.60;;
17686;SDS011;8962;52.538;13.266;2023-04-25T05:52:03;13.00;;;6.53;;
17686;SDS011;8962;52.538;13.266;2023-04-25T05:54:33;13.00;;;6.60;;
17686;SDS011;8962;52.538;13.266;2023-04-25T05:57:01;11.82;;;6.13;;
17686;SDS011;8962;52.538;13.266;2023-04-25T05:59:28;14.02;;;6.35;;
17686;SDS011;8962;52.538;13.266;2023-04-25T06:01:57;13.63;;;6.57;;
17686;SDS011;8962;52.538;13.266;2023-04-25T06:04:27;14.00;;;6.63;;
17686;SDS011;8962;52.538;13.266;2023-04-25T06:06:54;12.15;;;6.55;;
17686;SDS011;8962;52.538;13.266;2023-04-25T06:09:21;14.75;;;6.55;;
17686;SDS011;8962;52.538;13.266;2023-04-25T06:11:52;12.60;;;6.95;;
17686;SDS011;8962;52.538;13.266;2023-04-25T06:14:20;13.75;;;6.65;;
17686;SDS011;8962;52.538;13.266;2023-04-25T06:16:50;12.90;;;5.95;;
17686;SDS011;8962;52.538;13.266;2023-04-25T06:19:18;15.27;;;6.68;;
17686;SDS011;8962;52.538;13.266;2023-04-25T06:21:45;12.25;;;6.85;;
17686;SDS011;8962;52.538;13.266;2023-04-25T06:24:13;12.48;;;6.32;;
17686;SDS011;8962;52.538;13.266;2023-04-25T06:26:40;15.88;;;6.53;;
17686;SDS011;8962;52.538;13.266;2023-04-25T06:29:07;14.20;;;6.22;;
17686;SDS011;8962;52.538;13.266;2023-04-25T06:31:35;10.65;;;6.15;;
17686;SDS011;8962;52.538;13.266;2023-04-25T06:34:04;14.48;;;6.30;;
17686;SDS011;8962;52.538;13.266;2023-04-25T06:36:37;15.02;;;6.43;;
17686;SDS011;8962;52.538;13.266;2023-04-25T06:39:07;14.27;;;6.03;;
17686;SDS011;8962;52.538;13.266;2023-04-25T06:41:35;17.42;;;6.72;;
17686;SDS011;8962;52.538;13.266;2023-04-25T06:44:05;11.02;;;6.13;;
17686;SDS011;8962;52.538;13.266;2023-04-25T06:46:38;13.85;;;6.15;;
17686;SDS011;8962;52.538;13.266;2023-04-25T06:49:05;13.27;;;6.13;;
17686;SDS011;8962;52.538;13.266;2023-04-25T06:51:36;11.45;;;5.60;;
17686;SDS011;8962;52.538;13.266;2023-04-25T06:54:03;9.13;;;5.35;;
17686;SDS011;8962;52.538;13.266;2023-04-25T06:56:44;12.70;;;5.90;;
17686;SDS011;8962;52.538;13.266;2023-04-25T06:59:14;13.93;;;5.60;;
17686;SDS011;8962;52.538;13.266;2023-04-25T07:01:44;11.55;;;5.93;;
17686;SDS011;8962;52.538;13.266;2023-04-25T07:04:16;12.70;;;6.07;;
17686;SDS011;8962;52.538;13.266;2023-04-25T07:06:51;11.20;;;4.90;;
17686;SDS011;8962;52.538;13.266;2023-04-25T07:09:25;14.27;;;6.00;;
17686;SDS011;8962;52.538;13.266;2023-04-25T07:11:54;14.00;;;5.00;;
17686;SDS011;8962;52.538;13.266;2023-04-25T07:14:23;14.68;;;5.63;;
17686;SDS011;8962;52.538;13.266;2023-04-25T07:16:51;17.48;;;5.75;;
17686;SDS011;8962;52.538;13.266;2023-04-25T07:19:21;13.80;;;5.30;;
17686;SDS011;8962;52.538;13.266;2023-04-25T07:21:53;12.52;;;5.32;;
17686;SDS011;8962;52.538;13.266;2023-04-25T07:24:21;17.92;;;5.72;;
17686;SDS011;8962;52.538;13.266;2023-04-25T07:26:49;13.77;;;5.22;;
17686;SDS011;8962;52.538;13.266;2023-04-25T07:29:39;14.13;;;5.07;;
17686;SDS011;8962;52.538;13.266;2023-04-25T07:32:07;13.48;;;4.60;;
17686;SDS011;8962;52.538;13.266;2023-04-25T07:34:35;18.00;;;5.18;;
17686;SDS011;8962;52.538;13.266;2023-04-25T07:37:08;15.38;;;4.57;;
17686;SDS011;8962;52.538;13.266;2023-04-25T07:39:46;17.45;;;5.22;;
17686;SDS011;8962;52.538;13.266;2023-04-25T07:42:14;21.05;;;4.80;;
17686;SDS011;8962;52.538;13.266;2023-04-25T07:44:43;16.33;;;4.78;;
17686;SDS011;8962;52.538;13.266;2023-04-25T07:47:13;16.65;;;5.10;;
17686;SDS011;8962;52.538;13.266;2023-04-25T07:49:43;20.42;;;5.20;;
17686;SDS011;8962;52.538;13.266;2023-04-25T07:52:12;20.33;;;4.78;;
17686;SDS011;8962;52.538;13.266;2023-04-25T07:54:48;19.33;;;4.47;;
17686;SDS011;8962;52.538;13.266;2023-04-25T07:57:21;20.25;;;4.82;;
17686;SDS011;8962;52.538;13.266;2023-04-25T07:59:50;16.48;;;4.38;;
17686;SDS011;8962;52.538;13.266;2023-04-25T08:02:19;19.20;;;4.30;;
17686;SDS011;8962;52.538;13.266;2023-04-25T08:04:46;20.02;;;4.55;;
17686;SDS011;8962;52.538;13.266;2023-04-25T08:07:18;22.83;;;5.00;;
17686;SDS011;8962;52.538;13.266;2023-04-25T08:09:49;19.60;;;5.28;;
17686;SDS011;8962;52.538;13.266;2023-04-25T08:12:23;17.80;;;4.65;;
17686;SDS011;8962;52.538;13.266;2023-04-25T08:14:50;21.85;;;4.78;;
17686;SDS011;8962;52.538;13.266;2023-04-25T08:17:19;19.20;;;4.78;;
17686;SDS011;8962;52.538;13.266;2023-04-25T08:19:46;18.80;;;4.50;;
17686;SDS011;8962;52.538;13.266;2023-04-25T08:22:23;16.52;;;4.10;;
17686;SDS011;8962;52.538;13.266;2023-04-25T08:24:58;21.27;;;4.50;;
17686;SDS011;8962;52.538;13.266;2023-04-25T08:27:26;21.77;;;4.90;;
17686;SDS011;8962;52.538;13.266;2023-04-25T08:29:53;23.58;;;5.38;;
17686;SDS011;8962;52.538;13.266;2023-04-25T08:32:21;16.15;;;4.93;;
17686;SDS011;8962;52.538;13.266;2023-04-25T08:35:12;18.20;;;4.60;;
17686;SDS011;8962;52.538;13.266;2023-04-25T08:37:40;17.00;;;4.78;;
17686;SDS011;8962;52.538;13.266;2023-04-25T08:40:12;15.27;;;4.68;;
17686;SDS011;8962;52.538;13.266;2023-04-25T08:43:01;12.57;;;3.42;;
17686;SDS011;8962;52.538;13.266;2023-04-25T08:45:31;17.63;;;3.53;;
17686;SDS011;8962;52.538;13.266;2023-04-25T08:48:00;19.92;;;4.30;;
17686;SDS011;8962;52.538;13.266;2023-04-25T08:50:28;20.80;;;4.05;;
17686;SDS011;8962;52.538;13.266;2023-04-25T08:52:58;16.33;;;4.25;;
17686;SDS011;8962;52.538;13.266;2023-04-25T08:55:28;15.30;;;3.20;;
17686;SDS011;8962;52.538;13.266;2023-04-25T08:57:58;17.95;;;4.20;;
17686;SDS011;8962;52.538;13.266;2023-04-25T09:00:28;13.45;;;3.63;;
17686;SDS011;8962;52.538;13.266;2023-04-25T09:02:57;14.55;;;3.53;;
17686;SDS011;8962;52.538;13.266;2023-04-25T09:05:29;15.00;;;3.40;;
17686;SDS011;8962;52.538;13.266;2023-04-25T09:08:00;13.18;;;3.67;;
17686;SDS011;8962;52.538;13.266;2023-04-25T09:10:28;14.07;;;3.80;;
17686;SDS011;8962;52.538;13.266;2023-04-25T09:13:03;16.92;;;3.83;;
17686;SDS011;8962;52.538;13.266;2023-04-25T09:15:46;14.13;;;4.07;;
17686;SDS011;8962;52.538;13.266;2023-04-25T09:18:53;16.95;;;3.90;;
17686;SDS011;8962;52.538;13.266;2023-04-25T09:21:21;20.63;;;3.97;;
17686;SDS011;8962;52.538;13.266;2023-04-25T09:23:51;11.43;;;3.63;;
17686;SDS011;8962;52.538;13.266;2023-04-25T09:26:19;16.98;;;3.30;;
17686;SDS011;8962;52.538;13.266;2023-04-25T09:28:49;16.77;;;3.10;;
17686;SDS011;8962;52.538;13.266;2023-04-25T09:31:31;13.32;;;3.15;;
17686;SDS011;8962;52.538;13.266;2023-04-25T09:34:01;13.30;;;2.75;;
17686;SDS011;8962;52.538;13.266;2023-04-25T09:36:37;10.30;;;3.10;;
17686;SDS011;8962;52.538;13.266;2023-04-25T09:39:42;14.60;;;3.20;;
17686;SDS011;8962;52.538;13.266;2023-04-25T09:42:14;12.07;;;2.70;;
17686;SDS011;8962;52.538;13.266;2023-04-25T09:44:43;11.57;;;3.10;;
17686;SDS011;8962;52.538;13.266;2023-04-25T09:47:12;13.48;;;2.95;;
17686;SDS011;8962;52.538;13.266;2023-04-25T09:49:43;13.88;;;3.10;;
17686;SDS011;8962;52.538;13.266;2023-04-25T09:52:13;16.58;;;3.60;;
17686;SDS011;8962;52.538;13.266;2023-04-25T09:54:56;13.45;;;3.10;;
17686;SDS011;8962;52.538;13.266;2023-04-25T09:57:32;11.07;;;2.50;;
17686;SDS011;8962;52.538;13.266;2023-04-25T10:00:00;14.98;;;3.10;;
17686;SDS011;8962;52.538;13.266;2023-04-25T10:02:40;7.63;;;3.03;;
17686;SDS011;8962;52.538;13.266;2023-04-25T10:05:30;13.40;;;3.00;;
17686;SDS011;8962;52.538;13.266;2023-04-25T10:08:02;14.30;;;3.63;;
17686;SDS011;8962;52.538;13.266;2023-04-25T10:10:31;14.20;;;3.28;;
17686;SDS011;8962;52.538;13.266;2023-04-25T10:13:04;17.45;;;3.78;;
17686;SDS011;8962;52.538;13.266;2023-04-25T10:15:33;15.15;;;3.90;;
17686;SDS011;8962;52.538;13.266;2023-04-25T10:18:02;11.77;;;3.17;;
17686;SDS011;8962;52.538;13.266;2023-04-25T10:20:32;12.25;;;3.35;;
17686;SDS011;8962;52.538;13.266;2023-04-25T10:23:06;14.15;;;3.05;;
17686;SDS011;8962;52.538;13.266;2023-04-25T10:25:44;11.98;;;2.90;;
17686;SDS011;8962;52.538;13.266;2023-04-25T10:28:13;9.52;;;3.17;;
17686;SDS011;8962;52.538;13.266;2023-04-25T10:33:29;9.38;;;2.78;;
17686;SDS011;8962;52.538;13.266;2023-04-25T10:36:08;14.35;;;2.95;;
17686;SDS011;8962;52.538;13.266;2023-04-25T10:38:40;11.80;;;3.20;;
17686;SDS011;8962;52.538;13.266;2023-04-25T10:41:11;8.35;;;2.53;;
17686;SDS011;8962;52.538;13.266;2023-04-25T10:43:39;9.40;;;3.10;;
17686;SDS011;8962;52.538;13.266;2023-04-25T10:46:15;11.75;;;2.88;;
17686;SDS011;8962;52.538;13.266;2023-04-25T10:48:47;11.57;;;3.10;;
17686;SDS011;8962;52.538;13.266;2023-04-25T10:51:17;12.45;;;3.20;;
17686;SDS011;8962;52.538;13.266;2023-04-25T10:53:45;10.95;;;3.03;;
17686;SDS011;8962;52.538;13.266;2023-04-25T10:56:24;7.22;;;2.55;;
17686;SDS011;8962;52.538;13.266;2023-04-25T10:59:05;9.07;;;2.83;;
17686;SDS011;8962;52.538;13.266;2023-04-25T11:01:37;10.38;;;2.88;;
17686;SDS011;8962;52.538;13.266;2023-04-25T11:04:18;13.95;;;2.95;;
17686;SDS011;8962;52.538;13.266;2023-04-25T11:06:53;10.68;;;2.75;;
17686;SDS011;8962;52.538;13.266;2023-04-25T11:09:29;14.18;;;2.92;;
17686;SDS011;8962;52.538;13.266;2023-04-25T11:12:04;7.65;;;2.92;;
17686;SDS011;8962;52.538;13.266;2023-04-25T11:14:33;12.65;;;3.15;;
17686;SDS011;8962;52.538;13.266;2023-04-25T11:17:01;10.15;;;2.85;;
17686;SDS011;8962;52.538;13.266;2023-04-25T11:19:30;11.48;;;2.55;;
17686;SDS011;8962;52.538;13.266;2023-04-25T11:22:01;12.05;;;2.33;;
17686;SDS011;8962;52.538;13.266;2023-04-25T11:24:29;8.85;;;2.53;;
17686;SDS011;8962;52.538;13.266;2023-04-25T11:27:01;11.23;;;2.65;;
17686;SDS011;8962;52.538;13.266;2023-04-25T11:29:32;8.70;;;2.63;;
17686;SDS011;8962;52.538;13.266;2023-04-25T11:32:00;5.85;;;2.00;;
17686;SDS011;8962;52.538;13.266;2023-04-25T11:34:28;8.35;;;2.47;;
17686;SDS011;8962;52.538;13.266;2023-04-25T11:36:56;8.32;;;2.35;;
17686;SDS011;8962;52.538;13.266;2023-04-25T11:39:24;7.43;;;2.40;;
17686;SDS011;8962;52.538;13.266;2023-04-25T11:41:52;9.90;;;2.63;;
17686;SDS011;8962;52.538;13.266;2023-04-25T11:44:22;7.55;;;2.33;;
17686;SDS011;8962;52.538;13.266;2023-04-25T11:46:50;8.75;;;2.60;;
17686;SDS011;8962;52.538;13.266;2023-04-25T11:49:17;9.20;;;3.17;;
17686;SDS011;8962;52.538;13.266;2023-04-25T11:51:45;15.05;;;2.70;;
17686;SDS011;8962;52.538;13.266;2023-04-25T11:54:13;6.60;;;2.22;;
17686;SDS011;8962;52.538;13.266;2023-04-25T11:56:40;6.82;;;2.58;;
17686;SDS011;8962;52.538;13.266;2023-04-25T11:59:08;7.88;;;2.55;;
17686;SDS011;8962;52.538;13.266;2023-04-25T12:01:38;10.10;;;2.70;;
17686;SDS011;8962;52.538;13.266;2023-04-25T12:04:10;13.55;;;2.60;;
17686;SDS011;8962;52.538;13.266;2023-04-25T12:06:39;7.70;;;2.58;;
17686;SDS011;8962;52.538;13.266;2023-04-25T12:09:08;12.50;;;2.65;;
17686;SDS011;8962;52.538;13.266;2023-04-25T12:11:41;14.80;;;5.05;;
17686;SDS011;8962;52.538;13.266;2023-04-25T12:14:10;11.43;;;5.03;;
17686;SDS011;8962;52.538;13.266;2023-04-25T12:16:43;13.25;;;3.22;;
17686;SDS011;8962;52.538;13.266;2023-04-25T12:19:13;8.45;;;3.08;;
17686;SDS011;8962;52.538;13.266;2023-04-25T12:21:43;8.50;;;2.60;;
17686;SDS011;8962;52.538;13.266;2023-04-25T12:24:12;8.40;;;2.50;;
17686;SDS011;8962;52.538;13.266;2023-04-25T12:26:50;6.20;;;2.60;;
17686;SDS011;8962;52.538;13.266;2023-04-25T12:29:19;8.05;;;2.78;;
17686;SDS011;8962;52.538;13.266;2023-04-25T12:31:50;6.53;;;2.70;;
17686;SDS011;8962;52.538;13.266;2023-04-25T12:34:18;10.35;;;2.30;;
17686;SDS011;8962;52.538;13.266;2023-04-25T12:36:46;7.35;;;2.67;;
17686;SDS011;8962;52.538;13.266;2023-04-25T12:39:16;8.93;;;2.63;;
17686;SDS011;8962;52.538;13.266;2023-04-25T12:41:44;5.55;;;2.33;;
17686;SDS011;8962;52.538;13.266;2023-04-25T12:44:13;9.80;;;2.58;;
17686;SDS011;8962;52.538;13.266;2023-04-25T12:46:40;5.22;;;2.17;;
17686;SDS011;8962;52.538;13.266;2023-04-25T12:49:09;9.15;;;2.58;;
17686;SDS011;8962;52.538;13.266;2023-04-25T12:51:37;8.32;;;2.42;;
17686;SDS011;8962;52.538;13.266;2023-04-25T12:54:05;10.05;;;3.17;;
17686;SDS011;8962;52.538;13.266;2023-04-25T12:56:33;9.93;;;2.40;;
17686;SDS011;8962;52.538;13.266;2023-04-25T12:59:01;6.40;;;2.45;;
17686;SDS011;8962;52.538;13.266;2023-04-25T13:01:28;9.93;;;2.38;;
17686;SDS011;8962;52.538;13.266;2023-04-25T13:03:55;12.27;;;2.45;;
17686;SDS011;8962;52.538;13.266;2023-04-25T13:06:24;8.00;;;2.45;;
17686;SDS011;8962;52.538;13.266;2023-04-25T13:08:51;9.23;;;2.03;;
17686;SDS011;8962;52.538;13.266;2023-04-25T13:11:19;5.53;;;1.73;;
17686;SDS011;8962;52.538;13.266;2023-04-25T13:13:47;9.35;;;2.38;;
17686;SDS011;8962;52.538;13.266;2023-04-25T13:16:15;10.50;;;2.47;;
17686;SDS011;8962;52.538;13.266;2023-04-25T13:18:45;8.98;;;2.28;;
17686;SDS011;8962;52.538;13.266;2023-04-25T13:21:13;10.35;;;2.53;;
17686;SDS011;8962;52.538;13.266;2023-04-25T13:23:43;6.22;;;2.30;;
17686;SDS011;8962;52.538;13.266;2023-04-25T13:26:11;10.98;;;2.40;;
17686;SDS011;8962;52.538;13.266;2023-04-25T13:28:39;9.20;;;2.45;;
17686;SDS011;8962;52.538;13.266;2023-04-25T13:31:09;8.48;;;2.42;;
17686;SDS011;8962;52.538;13.266;2023-04-25T13:33:36;7.45;;;2.40;;
17686;SDS011;8962;52.538;13.266;2023-04-25T13:36:03;8.38;;;2.25;;
17686;SDS011;8962;52.538;13.266;2023-04-25T13:38:31;8.38;;;2.38;;
17686;SDS011;8962;52.538;13.266;2023-04-25T13:41:01;6.95;;;1.92;;
17686;SDS011;8962;52.538;13.266;2023-04-25T13:43:28;8.27;;;2.20;;
17686;SDS011;8962;52.538;13.266;2023-04-25T13:45:55;6.72;;;2.30;;
17686;SDS011;8962;52.538;13.266;2023-04-25T13:48:23;9.88;;;2.30;;
17686;SDS011;8962;52.538;13.266;2023-04-25T13:50:51;8.05;;;2.40;;
17686;SDS011;8962;52.538;13.266;2023-04-25T13:53:21;7.25;;;2.35;;
17686;SDS011;8962;52.538;13.266;2023-04-25T13:55:48;9.18;;;2.50;;
17686;SDS011;8962;52.538;13.266;2023-04-25T13:58:18;5.93;;;2.20;;
17686;SDS011;8962;52.538;13.266;2023-04-25T14:00:46;5.43;;;2.00;;
17686;SDS011;8962;52.538;13.266;2023-04-25T14:03:14;14.77;;;2.78;;
17686;SDS011;8962;52.538;13.266;2023-04-25T14:05:41;9.95;;;2.60;;
17686;SDS011;8962;52.538;13.266;2023-04-25T14:08:09;14.10;;;2.45;;
17686;SDS011;8962;52.538;13.266;2023-04-25T14:10:37;8.48;;;2.28;;
17686;SDS011;8962;52.538;13.266;2023-04-25T14:13:05;9.38;;;2.67;;
17686;SDS011;8962;52.538;13.266;2023-04-25T14:15:34;8.57;;;2.22;;
17686;SDS011;8962;52.538;13.266;2023-04-25T14:18:01;5.82;;;2.00;;
17686;SDS011;8962;52.538;13.266;2023-04-25T14:20:30;8.98;;;2.08;;
17686;SDS011;8962;52.538;13.266;2023-04-25T14:22:58;8.85;;;2.35;;
17686;SDS011;8962;52.538;13.266;2023-04-25T14:25:25;9.10;;;2.53;;
17686;SDS011;8962;52.538;13.266;2023-04-25T14:27:52;8.15;;;2.40;;
17686;SDS011;8962;52.538;13.266;2023-04-25T14:30:20;6.30;;;2.17;;
17686;SDS011;8962;52.538;13.266;2023-04-25T14:32:49;9.45;;;2.40;;
17686;SDS011;8962;52.538;13.266;2023-04-25T14:35:19;10.60;;;1.98;;
17686;SDS011;8962;52.538;13.266;2023-04-25T14:37:46;8.52;;;2.15;;
17686;SDS011;8962;52.538;13.266;2023-04-25T14:40:14;10.75;;;2.08;;
17686;SDS011;8962;52.538;13.266;2023-04-25T14:42:42;9.18;;;2.20;;
17686;SDS011;8962;52.538;13.266;2023-04-25T14:45:09;9.85;;;2.22;;
17686;SDS011;8962;52.538;13.266;2023-04-25T14:47:37;13.02;;;6.75;;
17686;SDS011;8962;52.538;13.266;2023-04-25T14:50:07;6.35;;;2.75;;
17686;SDS011;8962;52.538;13.266;2023-04-25T14:52:35;16.13;;;6.40;;
17686;SDS011;8962;52.538;13.266;2023-04-25T14:55:03;12.90;;;4.18;;
17686;SDS011;8962;52.538;13.266;2023-04-25T14:57:30;10.00;;;2.30;;
17686;SDS011;8962;52.538;13.266;2023-04-25T14:59:58;6.18;;;2.13;;
17686;SDS011;8962;52.538;13.266;2023-04-25T15:02:25;8.82;;;1.90;;
17686;SDS011;8962;52.538;13.266;2023-04-25T15:04:53;9.43;;;2.22;;